DIPPU EDWE-EDWJ

Flight info

Callsign DIPPU
Flight time 0h 8m
Altitude 2500
Route VFR
Aircraft BE38/L-S/S

Departure

Time 2026-05-05 14:57
Airport Emden Airport (EDWE)

Arrival

Time 2026-05-05 15:05
Airport Juist Airport (EDWJ)
Time Latitude Longitude Altitude Speed Heading
2026-05-05 14:53 53.38981 7.23170 3 ft 0 kts 147°
2026-05-05 14:54 53.38979 7.23177 3 ft 3 kts 98°
2026-05-05 14:54 53.38987 7.23141 4 ft 10 kts 255°
2026-05-05 14:54 53.38961 7.22980 3 ft 18 kts 255°
2026-05-05 14:54 53.38923 7.22752 3 ft 23 kts 259°
2026-05-05 14:55 53.38988 7.22515 1 ft 25 kts 320°
2026-05-05 14:55 53.39010 7.22488 1 ft 0 kts 328°
2026-05-05 14:55 53.39010 7.22487 1 ft 0 kts 328°
2026-05-05 14:56 53.39064 7.22453 0 ft 14 kts 25°
2026-05-05 14:56 53.39164 7.22922 7 ft 78 kts 72°
2026-05-05 14:56 53.39374 7.23990 129 ft 112 kts 56°
2026-05-05 14:57 53.40071 7.24622 433 ft 127 kts
2026-05-05 14:57 53.40997 7.24730 711 ft 136 kts
2026-05-05 14:57 53.41953 7.24722 971 ft 138 kts
2026-05-05 14:57 53.42916 7.24664 1226 ft 139 kts
2026-05-05 14:58 53.43883 7.24584 1462 ft 139 kts 360°
2026-05-05 14:58 53.44863 7.24502 1720 ft 145 kts
2026-05-05 14:58 53.45852 7.24427 2152 ft 137 kts
2026-05-05 14:58 53.46772 7.24339 2673 ft 129 kts
2026-05-05 14:59 53.47640 7.24257 3194 ft 121 kts
2026-05-05 14:59 53.48462 7.24151 3616 ft 120 kts 359°
2026-05-05 14:59 53.49315 7.23825 3828 ft 135 kts 347°
2026-05-05 14:59 53.50269 7.23283 3935 ft 154 kts 342°
2026-05-05 15:00 53.51323 7.22619 3975 ft 169 kts 342°
2026-05-05 15:00 53.52083 7.22137 3992 ft 175 kts 341°
2026-05-05 15:00 53.53619 7.21137 3991 ft 181 kts 343°
2026-05-05 15:00 53.54798 7.20359 3993 ft 183 kts 342°
2026-05-05 15:01 53.55982 7.19533 4003 ft 185 kts 341°
2026-05-05 15:01 53.57182 7.18703 4007 ft 187 kts 340°
2026-05-05 15:01 53.58425 7.17856 3773 ft 199 kts 342°
2026-05-05 15:01 53.59738 7.16979 3516 ft 207 kts 341°
2026-05-05 15:02 53.61096 7.16070 3267 ft 213 kts 341°
2026-05-05 15:02 53.62478 7.15129 3007 ft 215 kts 341°
2026-05-05 15:02 53.63827 7.14195 2749 ft 209 kts 342°
2026-05-05 15:02 53.65146 7.13252 2488 ft 204 kts 341°
2026-05-05 15:03 53.66445 7.12224 2009 ft 210 kts 330°
2026-05-05 15:03 53.67313 7.10258 1486 ft 215 kts 294°
2026-05-05 15:03 53.67342 7.07811 1115 ft 206 kts 257°
2026-05-05 15:03 53.66911 7.05638 950 ft 185 kts 254°
2026-05-05 15:04 53.66465 7.03728 856 ft 166 kts 254°
2026-05-05 15:04 53.66419 7.01974 718 ft 138 kts 302°
2026-05-05 15:04 53.67083 7.01209 483 ft 110 kts
2026-05-05 15:04 53.67617 7.02015 304 ft 107 kts 63°
2026-05-05 15:05 53.67920 7.04206 85 ft 87 kts 70°
2026-05-05 15:05 53.68056 7.05176 17 ft 81 kts 73°
2026-05-05 15:05 53.68167 7.05915 5 ft 46 kts 78°
2026-05-05 15:06 53.68214 7.06151 8 ft 10 kts 13°
2026-05-05 15:06 53.68230 7.06118 8 ft 0 kts 256°
2026-05-05 15:06 53.68229 7.06106 8 ft 5 kts 256°
2026-05-05 15:06 53.68211 7.05987 6 ft 16 kts 255°
2026-05-05 15:07 53.68180 7.05773 6 ft 20 kts 256°
2026-05-05 15:07 53.68151 7.05535 10 ft 16 kts 279°
2026-05-05 15:07 53.68160 7.05521 10 ft 0 kts 358°
2026-05-05 15:10 0.00502 0.00001 53808 ft 0 kts